^^
Atglen Borough Weather Station Historical Data
 
Daily Summary for September 22, 2018 Units:  English    Metric   Both
Daily Weekly Monthly Yearly Custom
  Current: High: Low: Average:
Temperature: 70.3 °F 72.3 °F 70.3 °F 71.6 °F
Dew Point: 68.5 °F 69.6 °F 68.5 °F 69.2 °F
Humidity: 94% 94% 90% 92%
Wind Speed: 0mph 6.9mph 0mph 1.4mph
Wind Gust: 0mph 15mph - -
WindCalm - - SW
Pressure: 30.01 in 30.01 in 29.96 in -
Precipitation: 0.02 in      
Historical Graphs
 
 
Tabular Data for September 22, 2018
Time Temperature Dew Point Pressure Wind Wind Speed Wind Gust Humidity Rainfall Rate (Hourly)
00:04 71.4 °F 68.9 °F 29.98 in SSW 6.9 mph 13 mph 92% 0 in
00:09 71.8 °F 69.3 °F 29.98 in SSW 6 mph 15 mph 92% 0 in
00:14 71.8 °F 69.3 °F 29.98 in SSW 4 mph 9 mph 92% 0 in
00:19 71.8 °F 69.1 °F 29.98 in WSW 2.9 mph 8 mph 91% 0 in
00:24 72 °F 69.3 °F 29.98 in SSW 2.9 mph 8 mph 91% 0 in
00:29 72 °F 69.3 °F 29.98 in SW 4.9 mph 11 mph 91% 0 in
00:34 72 °F 69.3 °F 29.98 in WSW 0.9 mph 13 mph 91% 0 in
00:39 72.1 °F 69.4 °F 29.98 in SW 2.9 mph 8 mph 91% 0 in
00:44 72.1 °F 69.4 °F 29.98 in SSW 0.9 mph 8 mph 91% 0 in
00:49 72.1 °F 69.4 °F 29.98 in SSE 6 mph 12 mph 91% 0 in
00:54 72.3 °F 69.3 °F 29.98 in SSW 2 mph 10 mph 90% 0 in
00:59 72.3 °F 69.3 °F 29.97 in South 2.9 mph 10 mph 90% 0 in
01:04 72.3 °F 69.3 °F 29.98 in West 2.9 mph 7 mph 90% 0 in
01:09 72.3 °F 69.3 °F 29.99 in West 0.9 mph 5 mph 90% 0 in
01:14 72.3 °F 69.3 °F 29.98 in South 2 mph 8 mph 90% 0 in
01:19 72.3 °F 69.3 °F 29.98 in SW 2.9 mph 10 mph 90% 0 in
01:24 72.3 °F 69.3 °F 29.98 in SW 4 mph 7 mph 90% 0 in
01:29 72.3 °F 69.3 °F 29.99 in SW 4 mph 9 mph 90% 0 in
01:34 72.3 °F 69.3 °F 30.00 in NW 4.9 mph 9 mph 90% 0 in
01:39 72.3 °F 69.3 °F 30.00 in West 6 mph 6 mph 90% 0 in
01:44 72.3 °F 69.6 °F 29.99 in SW 0.9 mph 5 mph 91% 0 in
01:49 72.3 °F 69.6 °F 29.98 in SSW 0.9 mph 3 mph 91% 0 in
01:54 72.3 °F 69.6 °F 29.98 in Calm   3 mph 91% 0 in
01:59 72.3 °F 69.6 °F 29.98 in SSW 2 mph 3 mph 91% 0 in
02:04 72.3 °F 69.6 °F 29.98 in SSW 2.9 mph 4 mph 91% 0 in
02:09 72.3 °F 69.6 °F 29.98 in SSW 0.9 mph 5 mph 91% 0 in
02:14 72.3 °F 69.6 °F 29.98 in SW 4 mph 4 mph 91% 0 in
02:19 72.3 °F 69.6 °F 29.98 in SSW 2 mph 5 mph 91% 0 in
02:24 72.1 °F 69.4 °F 29.98 in SSW 2 mph 5 mph 91% 0 in
02:29 72.1 °F 69.4 °F 29.98 in West 0.9 mph 6 mph 91% 0 in
02:34 72.1 °F 69.4 °F 29.98 in West 0.9 mph 2 mph 91% 0 in
02:39 72.1 °F 69.4 °F 29.98 in West 2 mph 2 mph 91% 0 in
02:44 72.1 °F 69.6 °F 29.98 in WSW 0.9 mph 4 mph 92% 0 in
02:49 72.1 °F 69.6 °F 29.97 in WSW 0.9 mph 1 mph 92% 0 in
02:54 72 °F 69.4 °F 29.97 in Calm   1 mph 92% 0 in
02:59 72 °F 69.3 °F 29.97 in WSW 0.9 mph 3 mph 91% 0 in
03:04 71.8 °F 69.3 °F 29.97 in Calm   1 mph 92% 0 in
03:09 71.8 °F 69.3 °F 29.97 in Calm   1 mph 92% 0 in
03:14 71.8 °F 69.3 °F 29.96 in Calm     92% 0 in
03:19 71.6 °F 69.1 °F 29.97 in Calm   3 mph 92% 0 in
03:24 71.4 °F 68.9 °F 29.97 in Calm   1 mph 92% 0 in
03:29 71.4 °F 68.9 °F 29.97 in Calm   1 mph 92% 0 in
03:34 71.2 °F 68.7 °F 29.97 in Calm   1 mph 92% 0 in
03:39 71.2 °F 68.7 °F 29.97 in Calm     92% 0 in
03:44 71.2 °F 68.7 °F 29.98 in Calm   1 mph 92% 0 in
03:49 71.2 °F 68.7 °F 29.97 in Calm     92% 0 in
03:54 71.1 °F 68.9 °F 29.98 in Calm   2 mph 93% 0 in
03:59 71.1 °F 68.9 °F 29.98 in WSW 0.9 mph 1 mph 93% 0 in
04:04 71.1 °F 68.9 °F 29.98 in WSW 0.9 mph 2 mph 93% 0 in
04:09 71.1 °F 68.9 °F 29.98 in Calm   2 mph 93% 0.01 in
04:14 71.1 °F 68.9 °F 29.98 in WSW 0.9 mph 2 mph 93% 0.01 in
04:19 71.1 °F 69.3 °F 29.98 in WSW 0.9 mph 2 mph 94% 0.02 in
04:24 70.9 °F 69.1 °F 29.97 in Calm   3 mph 94% 0.02 in
04:29 70.9 °F 69.1 °F 29.98 in Calm   1 mph 94% 0.02 in
04:34 70.9 °F 69.1 °F 29.97 in Calm   3 mph 94% 0.02 in
04:39 70.9 °F 69.1 °F 29.97 in Calm   1 mph 94% 0.02 in
04:44 70.9 °F 69.1 °F 29.98 in Calm   3 mph 94% 0.02 in
04:49 70.9 °F 69.1 °F 29.98 in Calm   2 mph 94% 0.02 in
04:54 70.9 °F 69.1 °F 29.98 in WNW 0.9 mph 2 mph 94% 0.02 in
04:59 70.9 °F 69.1 °F 29.98 in WNW 0.9 mph 2 mph 94% 0.02 in
05:04 70.9 °F 69.1 °F 29.99 in WNW 2 mph 3 mph 94% 0.02 in
05:09 70.9 °F 69.1 °F 29.99 in Calm   2 mph 94% 0.01 in
05:14 70.7 °F 68.9 °F 29.99 in Calm   1 mph 94% 0.01 in
05:19 70.7 °F 68.9 °F 29.99 in Calm     94% 0 in
05:24 70.5 °F 68.7 °F 29.99 in Calm     94% 0 in
05:29 70.5 °F 68.7 °F 30.00 in Calm     94% 0 in
05:34 70.5 °F 68.7 °F 30.00 in Calm     94% 0 in
05:39 70.3 °F 68.5 °F 30.00 in Calm     94% 0 in
05:44 70.3 °F 68.5 °F 30.00 in Calm     94% 0 in
05:49 70.3 °F 68.5 °F 30.01 in Calm     94% 0 in
Atglen Borough, Pennsylvania, USA
Compliments of Weather Underground - 2.25 mb